RNO weather

Reno Tahoe International Airport
Reno, Nevada, United States

Public forecast

Using degrees Fahrenheit for public forecast. Weather courtesy of forecast.io.

Current aviation weather report (METAR) for Reno Tahoe International Airport

Retrieved 2020/07/05 12:55 UTC (43 minutes ago):

KRNO 051255Z 23003KT 10SM CLR 13/M01 A3018 RMK AO2 SLP171 T01331011

Aviation forecast (TAF) for Reno Tahoe International Airport

Retrieved 2020/07/05 12:22 UTC (1 hour ago):

TAF KRNO 051120Z 0512/0612 VRB03KT P6SM SKC FM052200 26014G24KT P6SM SKC FM060400 29011KT P6SM SKC FM060700 VRB03KT P6SM SKC